createdAt,value
2023-05-03T00:02:05.479Z,8.38
2023-05-03T00:04:32.484Z,8.35
2023-05-03T00:06:59.610Z,8.27
2023-05-03T00:09:25.909Z,7.93
2023-05-03T00:11:52.978Z,8.60
2023-05-03T00:14:19.263Z,7.20
2023-05-03T00:16:45.655Z,7.72
2023-05-03T00:19:24.254Z,7.88
2023-05-03T00:21:57.209Z,8.23
2023-05-03T00:24:24.302Z,7.93
2023-05-03T00:26:50.664Z,9.50
2023-05-03T00:29:18.195Z,8.98
2023-05-03T00:31:44.556Z,8.93
2023-05-03T00:34:10.927Z,10.00
2023-05-03T00:36:37.357Z,9.15
2023-05-03T00:39:03.647Z,9.20
2023-05-03T00:41:30.636Z,9.65
2023-05-03T00:43:56.940Z,10.55
2023-05-03T00:46:23.310Z,10.70
2023-05-03T00:48:50.034Z,9.95
2023-05-03T00:51:18.686Z,10.65
2023-05-03T00:53:45.008Z,10.70
2023-05-03T00:56:11.502Z,10.68
2023-05-03T00:58:39.564Z,11.38
2023-05-03T01:01:06.965Z,10.75
2023-05-03T01:03:35.484Z,10.73
2023-05-03T01:06:11.455Z,11.00
2023-05-03T01:08:43.813Z,10.10
2023-05-03T01:11:20.074Z,9.10
2023-05-03T01:13:54.654Z,9.55
2023-05-03T01:16:26.437Z,8.80
2023-05-03T01:18:57.200Z,9.38
2023-05-03T01:21:25.323Z,10.10
2023-05-03T01:23:59.312Z,9.75
2023-05-03T01:26:27.653Z,9.63
2023-05-03T01:28:55.069Z,9.65
2023-05-03T01:31:29.872Z,9.85
2023-05-03T01:34:10.228Z,9.55
2023-05-03T01:36:37.015Z,8.52
2023-05-03T01:39:10.295Z,8.98
2023-05-03T01:41:39.981Z,9.02
2023-05-03T01:44:07.096Z,9.52
2023-05-03T01:46:33.487Z,9.13
2023-05-03T01:48:59.965Z,9.25
2023-05-03T01:51:26.857Z,10.00
2023-05-03T01:53:53.165Z,9.73
2023-05-03T01:56:19.450Z,9.05
2023-05-03T01:58:46.430Z,9.68
2023-05-03T02:01:12.776Z,9.20
2023-05-03T02:03:39.136Z,9.30
2023-05-03T02:06:05.696Z,9.85
2023-05-03T02:08:32.148Z,9.02
2023-05-03T02:10:58.520Z,9.20
2023-05-03T02:13:24.807Z,9.85
2023-05-03T02:15:51.845Z,8.55
2023-05-03T02:18:19.508Z,8.75
2023-05-03T02:20:46.142Z,9.18
2023-05-03T02:23:12.830Z,9.07
2023-05-03T02:25:39.305Z,9.00
2023-05-03T02:28:05.915Z,8.90
2023-05-03T02:30:32.342Z,8.52
2023-05-03T02:32:59.364Z,7.97
2023-05-03T02:35:25.845Z,8.68
2023-05-03T02:37:52.159Z,7.97
2023-05-03T02:40:18.456Z,8.02
2023-05-03T02:42:44.901Z,7.70
2023-05-03T02:45:11.515Z,8.00
2023-05-03T02:47:37.862Z,8.05
2023-05-03T02:50:06.260Z,8.45
2023-05-03T02:52:32.925Z,8.10
2023-05-03T02:54:59.244Z,8.05
2023-05-03T02:57:25.639Z,8.15
2023-05-03T02:59:52.172Z,7.70
2023-05-03T03:02:18.508Z,8.05
2023-05-03T03:04:44.800Z,8.45
2023-05-03T03:07:11.826Z,8.40
2023-05-03T03:09:38.140Z,8.75
2023-05-03T03:12:05.194Z,8.85
2023-05-03T03:14:31.535Z,8.68
2023-05-03T03:16:57.909Z,9.25
2023-05-03T03:19:24.202Z,8.60
2023-05-03T03:21:51.082Z,8.48
2023-05-03T03:24:18.062Z,8.50
2023-05-03T03:26:44.352Z,8.20
2023-05-03T03:29:10.667Z,8.45
2023-05-03T03:31:36.993Z,6.95
2023-05-03T03:34:03.364Z,7.65
2023-05-03T03:36:30.068Z,7.18
2023-05-03T03:38:56.387Z,7.68
2023-05-03T03:41:23.402Z,8.43
2023-05-03T03:43:49.728Z,8.57
2023-05-03T03:46:16.779Z,8.20
2023-05-03T03:48:43.201Z,8.77
2023-05-03T03:51:09.491Z,9.45
2023-05-03T03:53:35.871Z,9.38
2023-05-03T03:56:02.348Z,9.00
2023-05-03T03:58:29.380Z,8.98
2023-05-03T04:00:55.934Z,7.95
2023-05-03T04:03:22.336Z,9.52
2023-05-03T04:05:50.246Z,9.20
2023-05-03T04:08:16.542Z,8.20
2023-05-03T04:10:42.982Z,7.35
2023-05-03T04:13:09.291Z,7.50
2023-05-03T04:15:36.224Z,8.98
2023-05-03T04:18:02.870Z,8.43
2023-05-03T04:20:29.305Z,8.63
2023-05-03T04:22:55.741Z,9.30
2023-05-03T04:25:22.084Z,8.18
2023-05-03T04:27:48.406Z,8.43
2023-05-03T04:30:14.810Z,8.57
2023-05-03T04:32:41.818Z,10.32
2023-05-03T04:35:10.053Z,9.77
2023-05-03T04:37:41.914Z,10.35
2023-05-03T04:40:13.994Z,10.02
2023-05-03T04:42:40.425Z,9.68
2023-05-03T04:45:08.852Z,9.15
2023-05-03T04:47:35.353Z,9.38
2023-05-03T04:50:03.004Z,12.20
2023-05-03T04:52:29.415Z,11.07
2023-05-03T04:54:55.850Z,9.85
2023-05-03T04:57:22.170Z,9.50
2023-05-03T04:59:49.267Z,9.20
2023-05-03T05:02:15.702Z,9.07
2023-05-03T05:04:42.007Z,9.35
2023-05-03T05:07:08.935Z,8.98
2023-05-03T05:09:35.655Z,9.13
2023-05-03T05:12:03.313Z,8.82
2023-05-03T05:14:30.542Z,8.52
2023-05-03T05:16:56.902Z,8.90
2023-05-03T05:19:23.257Z,9.32
2023-05-03T05:21:51.453Z,10.13
2023-05-03T05:24:18.509Z,9.27
2023-05-03T05:26:45.157Z,9.43
2023-05-03T05:29:11.957Z,16.52
2023-05-03T05:31:38.308Z,13.10
2023-05-03T05:34:04.662Z,19.75
2023-05-03T05:36:31.037Z,19.05
2023-05-03T05:38:57.459Z,20.10
2023-05-03T05:41:24.468Z,21.35
2023-05-03T05:43:50.945Z,20.35
2023-05-03T05:46:20.246Z,20.63
2023-05-03T05:48:46.777Z,20.90
2023-05-03T05:51:13.146Z,19.70
2023-05-03T05:53:39.426Z,19.52
2023-05-03T05:56:06.090Z,19.75
2023-05-03T05:58:33.101Z,19.85
2023-05-03T06:01:00.493Z,18.85
2023-05-03T06:03:27.111Z,20.15
2023-05-03T06:05:53.484Z,21.52
2023-05-03T06:08:19.836Z,20.52
2023-05-03T06:10:46.282Z,22.35
2023-05-03T06:13:12.576Z,21.20
2023-05-03T06:15:40.316Z,23.58
2023-05-03T06:18:06.796Z,24.33
2023-05-03T06:20:33.160Z,24.00
2023-05-03T06:22:59.579Z,21.63
2023-05-03T06:25:26.006Z,22.40
2023-05-03T06:27:52.348Z,22.98
2023-05-03T06:30:18.791Z,23.88
2023-05-03T06:32:47.729Z,24.27
2023-05-03T06:35:14.909Z,23.52
2023-05-03T06:37:42.894Z,24.38
2023-05-03T06:40:09.583Z,25.42
2023-05-03T06:42:35.913Z,24.13
2023-05-03T06:45:03.008Z,24.55
2023-05-03T06:47:29.368Z,26.05
2023-05-03T06:49:56.370Z,26.13
2023-05-03T06:52:22.726Z,24.30
2023-05-03T06:54:49.016Z,24.65
2023-05-03T06:57:15.382Z,26.00
2023-05-03T06:59:41.694Z,25.25
2023-05-03T07:02:08.186Z,24.83
2023-05-03T07:04:35.196Z,24.05
2023-05-03T07:07:02.254Z,22.83
2023-05-03T07:09:42.205Z,24.42
2023-05-03T07:12:10.061Z,25.55
2023-05-03T07:14:36.462Z,23.55
2023-05-03T07:17:02.852Z,25.58
2023-05-03T07:19:29.774Z,24.67
2023-05-03T07:21:56.088Z,23.83
2023-05-03T07:24:24.985Z,22.92
2023-05-03T07:26:51.889Z,23.85
2023-05-03T07:29:18.482Z,23.65
2023-05-03T07:31:45.008Z,23.77
2023-05-03T07:34:11.350Z,23.42
2023-05-03T07:36:38.574Z,21.67
2023-05-03T07:39:04.902Z,23.05
2023-05-03T07:41:31.894Z,21.70
2023-05-03T07:43:58.263Z,23.50
2023-05-03T07:46:27.498Z,23.35
2023-05-03T07:48:53.903Z,22.02
2023-05-03T07:51:20.452Z,20.40
2023-05-03T07:53:46.812Z,23.15
2023-05-03T07:56:13.153Z,23.55
2023-05-03T07:58:41.067Z,24.33
2023-05-03T08:01:09.948Z,23.95
2023-05-03T08:03:36.848Z,22.05
2023-05-03T08:06:03.819Z,23.77
2023-05-03T08:08:31.424Z,23.42
2023-05-03T08:10:57.757Z,23.75
2023-05-03T08:13:24.129Z,24.50
2023-05-03T08:15:51.278Z,23.83
2023-05-03T08:18:17.684Z,22.00
2023-05-03T08:20:44.479Z,21.48
2023-05-03T08:23:10.820Z,22.20
2023-05-03T08:25:37.199Z,22.35
2023-05-03T08:28:03.782Z,22.58
2023-05-03T08:30:30.642Z,20.50
2023-05-03T08:32:57.822Z,20.77
2023-05-03T08:35:27.401Z,21.80
2023-05-03T08:37:53.756Z,21.25
2023-05-03T08:40:22.090Z,21.85
2023-05-03T08:42:49.310Z,21.02
2023-05-03T08:45:16.168Z,22.35
2023-05-03T08:47:43.975Z,19.92
2023-05-03T08:50:12.795Z,19.40
2023-05-03T08:52:40.049Z,19.58
2023-05-03T08:55:07.753Z,19.42
2023-05-03T08:57:35.045Z,19.75
2023-05-03T09:00:05.419Z,20.10
2023-05-03T09:02:34.140Z,18.20
2023-05-03T09:05:00.546Z,19.55
2023-05-03T09:07:27.533Z,18.33
2023-05-03T09:09:54.280Z,19.65
2023-05-03T09:12:34.432Z,20.05
2023-05-03T09:15:00.917Z,18.35
2023-05-03T09:17:27.236Z,18.25
2023-05-03T09:19:55.184Z,20.25
2023-05-03T09:22:23.794Z,20.42
2023-05-03T09:24:54.810Z,19.30
2023-05-03T09:27:21.911Z,19.52
2023-05-03T09:29:48.915Z,18.02
2023-05-03T09:32:16.228Z,18.33
2023-05-03T09:34:43.746Z,19.75
2023-05-03T09:37:10.442Z,19.17
2023-05-03T09:39:36.994Z,18.45
2023-05-03T09:42:17.434Z,19.58
2023-05-03T09:44:47.912Z,19.90
2023-05-03T09:47:15.221Z,17.63
2023-05-03T09:49:41.502Z,18.30
2023-05-03T09:52:08.432Z,17.83
2023-05-03T09:54:35.219Z,17.70
2023-05-03T09:57:04.158Z,17.40
2023-05-03T09:59:31.773Z,16.63
2023-05-03T10:01:59.045Z,17.48
2023-05-03T10:04:27.217Z,15.80
2023-05-03T10:06:58.769Z,15.55
2023-05-03T10:09:31.891Z,16.05
2023-05-03T10:12:01.202Z,15.43
2023-05-03T10:14:27.874Z,13.45
2023-05-03T10:17:00.089Z,14.25
2023-05-03T10:19:33.196Z,15.45
2023-05-03T10:22:03.880Z,14.57
2023-05-03T10:24:30.313Z,14.25
2023-05-03T10:26:56.930Z,16.02
2023-05-03T10:29:47.423Z,15.23
2023-05-03T10:32:29.474Z,15.00
2023-05-03T10:34:57.475Z,15.43
2023-05-03T10:37:26.375Z,16.13
2023-05-03T10:39:52.729Z,15.23
2023-05-03T10:42:21.945Z,15.90
2023-05-03T10:44:51.767Z,15.38
2023-05-03T10:47:19.574Z,16.48
2023-05-03T10:49:46.606Z,18.63
2023-05-03T10:52:48.475Z,16.42
2023-05-03T10:55:17.323Z,17.70
2023-05-03T10:57:47.303Z,17.38
2023-05-03T11:00:16.519Z,16.70
2023-05-03T11:03:09.416Z,17.60
2023-05-03T11:05:36.521Z,17.38
2023-05-03T11:08:10.638Z,18.90
2023-05-03T11:10:37.113Z,17.90
2023-05-03T11:13:03.504Z,16.83
2023-05-03T11:15:30.512Z,16.90
2023-05-03T11:17:57.123Z,19.55
2023-05-03T11:20:23.642Z,18.45
2023-05-03T11:22:51.360Z,17.23
2023-05-03T11:25:17.919Z,17.88
2023-05-03T11:27:47.797Z,18.42
2023-05-03T11:30:14.788Z,18.45
2023-05-03T11:32:42.403Z,18.17
2023-05-03T11:35:09.431Z,19.33
2023-05-03T11:37:35.885Z,17.13
2023-05-03T11:40:04.260Z,16.40
2023-05-03T11:42:30.606Z,15.75
2023-05-03T11:44:56.966Z,15.00
2023-05-03T11:47:24.211Z,14.50
2023-05-03T11:49:57.315Z,13.38
2023-05-03T11:52:26.617Z,16.77
2023-05-03T11:54:53.474Z,16.35
2023-05-03T11:57:21.076Z,16.40
2023-05-03T11:59:48.974Z,17.38
2023-05-03T12:02:16.228Z,17.63
2023-05-03T12:04:44.451Z,15.35
2023-05-03T12:07:13.630Z,16.27
2023-05-03T12:09:41.627Z,16.10
2023-05-03T12:12:13.615Z,15.80
2023-05-03T12:14:58.685Z,17.27
2023-05-03T12:17:36.987Z,16.60
2023-05-03T12:21:03.837Z,17.17
2023-05-03T12:23:09.207Z,13.00
2023-05-03T12:25:39.602Z,14.63
2023-05-03T12:28:19.793Z,13.88
2023-05-03T12:30:48.165Z,13.82
2023-05-03T12:33:16.027Z,13.52
2023-05-03T12:35:46.816Z,14.52
2023-05-03T12:38:16.596Z,14.00
2023-05-03T12:40:44.401Z,13.57
2023-05-03T12:43:11.084Z,14.10
2023-05-03T12:45:40.143Z,14.25
2023-05-03T12:48:08.390Z,13.80
2023-05-03T12:50:38.373Z,15.07
2023-05-03T12:53:09.490Z,15.00
2023-05-03T12:55:41.685Z,13.73
2023-05-03T13:01:02.905Z,12.65
2023-05-03T13:03:33.232Z,13.68
2023-05-03T13:06:00.353Z,13.82
2023-05-03T13:08:33.540Z,15.23
2023-05-03T13:11:01.306Z,14.25
2023-05-03T13:13:27.837Z,15.63
2023-05-03T13:15:54.178Z,13.23
2023-05-03T13:18:20.911Z,10.55
2023-05-03T13:20:48.505Z,10.88
2023-05-03T13:23:14.818Z,10.48
2023-05-03T13:25:41.299Z,9.75
2023-05-03T13:28:07.892Z,11.30
2023-05-03T13:30:34.272Z,10.30
2023-05-03T13:33:00.804Z,12.20
2023-05-03T13:35:27.193Z,10.82
2023-05-03T13:37:54.276Z,12.35
2023-05-03T13:40:20.645Z,11.73
2023-05-03T13:42:47.909Z,13.80
2023-05-03T13:45:14.352Z,11.77
2023-05-03T13:47:59.501Z,11.50
2023-05-03T13:50:28.763Z,10.63
2023-05-03T13:52:55.967Z,9.98
2023-05-03T13:55:23.547Z,9.35
2023-05-03T13:57:49.859Z,10.07
2023-05-03T14:00:16.923Z,11.48
2023-05-03T14:02:43.343Z,11.48
2023-05-03T14:05:10.394Z,9.48
2023-05-03T14:07:37.385Z,10.30
2023-05-03T14:10:05.645Z,10.07
2023-05-03T14:12:35.815Z,10.43
2023-05-03T14:15:02.658Z,10.50
2023-05-03T14:17:29.074Z,10.02
2023-05-03T14:19:55.490Z,10.60
2023-05-03T14:22:21.792Z,9.27
2023-05-03T14:24:49.582Z,10.45
2023-05-03T14:27:20.900Z,10.40
2023-05-03T14:29:47.290Z,11.15
2023-05-03T14:32:13.640Z,8.48
2023-05-03T14:34:40.017Z,10.18
2023-05-03T14:37:06.355Z,10.20
2023-05-03T14:39:32.689Z,9.65
2023-05-03T14:41:58.954Z,8.48
2023-05-03T14:44:30.073Z,7.78
2023-05-03T14:46:58.119Z,9.05
2023-05-03T14:49:24.628Z,8.07
2023-05-03T14:51:50.993Z,7.80
2023-05-03T14:54:18.884Z,9.30
2023-05-03T14:56:45.217Z,8.18
2023-05-03T14:59:11.545Z,7.63
2023-05-03T15:01:38.516Z,9.20
2023-05-03T15:04:06.832Z,9.05
2023-05-03T15:06:34.046Z,9.85
2023-05-03T15:09:00.396Z,10.20
2023-05-03T15:11:27.051Z,9.07
2023-05-03T15:13:53.417Z,8.80
2023-05-03T15:16:20.021Z,9.52
2023-05-03T15:18:47.800Z,11.00
2023-05-03T15:21:14.546Z,9.40
2023-05-03T15:23:41.518Z,9.55
2023-05-03T15:26:07.951Z,9.93
2023-05-03T15:28:34.309Z,10.00
2023-05-03T15:31:01.236Z,9.82
2023-05-03T15:33:27.593Z,10.15
2023-05-03T15:35:55.059Z,10.27
2023-05-03T15:38:21.401Z,8.10
2023-05-03T15:40:47.721Z,7.72
2023-05-03T15:43:14.011Z,8.80
2023-05-03T15:45:40.670Z,8.50
2023-05-03T15:48:07.029Z,7.90
2023-05-03T15:50:33.545Z,7.68
2023-05-03T15:53:00.494Z,8.07
2023-05-03T15:55:26.784Z,8.25
2023-05-03T15:57:53.699Z,7.53
2023-05-03T16:00:22.267Z,8.32
2023-05-03T16:02:48.627Z,7.75
2023-05-03T16:05:15.762Z,7.70
2023-05-03T16:07:42.114Z,7.55
2023-05-03T16:10:10.273Z,6.10
2023-05-03T16:12:36.935Z,7.93
2023-05-03T16:15:04.267Z,7.35
2023-05-03T16:17:30.779Z,6.72
2023-05-03T16:19:57.238Z,7.00
2023-05-03T16:22:23.533Z,6.10
2023-05-03T16:24:50.493Z,8.10
2023-05-03T16:27:17.500Z,7.20
2023-05-03T16:29:43.809Z,8.63
2023-05-03T16:32:10.437Z,8.10
2023-05-03T16:34:37.510Z,7.47
2023-05-03T16:37:03.822Z,8.10
2023-05-03T16:39:30.696Z,7.30
2023-05-03T16:41:57.031Z,6.47
2023-05-03T16:44:24.263Z,6.80
2023-05-03T16:46:51.106Z,7.00
2023-05-03T16:49:17.936Z,6.88
2023-05-03T16:51:44.249Z,6.25
2023-05-03T16:54:11.201Z,6.07
2023-05-03T16:56:37.477Z,6.68
2023-05-03T16:59:04.360Z,6.07
2023-05-03T17:01:31.307Z,5.57
2023-05-03T17:03:57.645Z,5.97
2023-05-03T17:06:23.946Z,5.65
2023-05-03T17:08:50.519Z,5.70
2023-05-03T17:11:16.997Z,5.30
2023-05-03T17:13:43.746Z,5.57
2023-05-03T17:16:12.021Z,5.13
2023-05-03T17:18:39.823Z,4.70
2023-05-03T17:21:07.471Z,5.10
2023-05-03T17:23:35.023Z,5.65
2023-05-03T17:26:02.080Z,5.10
2023-05-03T17:28:28.381Z,4.97
2023-05-03T17:30:55.004Z,8.90
2023-05-03T17:33:21.526Z,6.38
2023-05-03T17:35:48.461Z,5.60
2023-05-03T17:38:14.958Z,5.75
2023-05-03T17:40:42.518Z,5.47
2023-05-03T17:43:09.094Z,5.07
2023-05-03T17:45:35.999Z,4.88
2023-05-03T17:48:03.296Z,5.18
2023-05-03T17:50:29.624Z,5.10
2023-05-03T17:52:56.716Z,5.22
2023-05-03T17:55:23.452Z,5.75
2023-05-03T17:57:50.129Z,5.50
2023-05-03T18:00:18.419Z,5.22
2023-05-03T18:02:44.913Z,5.20
2023-05-03T18:05:11.448Z,5.35
2023-05-03T18:07:37.743Z,5.25
2023-05-03T18:10:06.000Z,5.07
2023-05-03T18:12:32.530Z,4.97
2023-05-03T18:14:58.942Z,5.22
2023-05-03T18:17:29.409Z,5.43
2023-05-03T18:19:56.093Z,5.50
2023-05-03T18:22:22.570Z,5.57
2023-05-03T18:24:53.200Z,5.57
2023-05-03T18:27:21.311Z,5.32
2023-05-03T18:29:48.184Z,5.68
2023-05-03T18:32:14.833Z,5.82
2023-05-03T18:34:41.222Z,5.43
2023-05-03T18:37:07.794Z,5.13
2023-05-03T18:39:34.628Z,5.63
2023-05-03T18:42:01.173Z,6.13
2023-05-03T18:44:28.292Z,6.85
2023-05-03T18:46:54.935Z,6.05
2023-05-03T18:49:21.477Z,6.13
2023-05-03T18:51:48.999Z,6.50
2023-05-03T18:54:15.476Z,6.10
2023-05-03T18:56:41.836Z,6.60
2023-05-03T18:59:08.191Z,6.97
2023-05-03T19:01:35.310Z,7.35
2023-05-03T19:04:02.160Z,6.50
2023-05-03T19:06:28.485Z,6.95
2023-05-03T19:08:54.958Z,6.82
2023-05-03T19:11:21.284Z,7.10
2023-05-03T19:13:47.645Z,7.20
2023-05-03T19:16:14.929Z,7.32
2023-05-03T19:18:43.585Z,7.05
2023-05-03T19:21:11.323Z,6.85
2023-05-03T19:23:37.748Z,6.97
2023-05-03T19:26:04.429Z,7.20
2023-05-03T19:28:30.954Z,7.85
2023-05-03T19:30:57.469Z,7.55
2023-05-03T19:33:25.023Z,7.80
2023-05-03T19:35:52.152Z,7.82
2023-05-03T19:38:18.491Z,7.70
2023-05-03T19:40:55.243Z,7.80
2023-05-03T19:43:21.641Z,7.57
2023-05-03T19:45:48.069Z,8.10
2023-05-03T19:48:16.612Z,8.00
2023-05-03T19:50:43.577Z,8.23
2023-05-03T19:53:10.816Z,8.00
2023-05-03T19:55:37.167Z,8.48
2023-05-03T19:58:03.636Z,8.40
2023-05-03T20:00:30.072Z,8.35
2023-05-03T20:02:56.457Z,8.57
2023-05-03T20:05:22.837Z,8.80
2023-05-03T20:07:51.729Z,8.35
2023-05-03T20:10:18.816Z,9.27
2023-05-03T20:12:45.223Z,9.02
2023-05-03T20:15:11.991Z,9.93
2023-05-03T20:17:38.393Z,9.60
2023-05-03T20:20:09.911Z,9.23
2023-05-03T20:22:36.487Z,9.43
2023-05-03T20:25:03.242Z,9.98
2023-05-03T20:27:30.346Z,11.75
2023-05-03T20:29:56.943Z,11.02
2023-05-03T20:32:23.354Z,11.25
2023-05-03T20:34:49.766Z,10.98
2023-05-03T20:37:16.145Z,10.68
2023-05-03T20:39:42.419Z,11.13
2023-05-03T20:42:08.808Z,10.82
2023-05-03T20:44:35.841Z,11.43
2023-05-03T20:47:02.239Z,11.40
2023-05-03T20:49:29.343Z,11.23
2023-05-03T20:51:55.823Z,11.27
2023-05-03T20:54:22.224Z,11.68
2023-05-03T20:56:48.523Z,12.20
2023-05-03T20:59:14.836Z,11.50
2023-05-03T21:01:42.019Z,11.63
2023-05-03T21:04:08.771Z,11.43
2023-05-03T21:06:37.315Z,11.50
2023-05-03T21:09:03.670Z,12.77
2023-05-03T21:11:29.993Z,13.73
2023-05-03T21:13:56.356Z,12.70
2023-05-03T21:16:22.885Z,12.55
2023-05-03T21:18:51.158Z,12.20
2023-05-03T21:21:17.481Z,11.90
2023-05-03T21:23:44.042Z,12.60
2023-05-03T21:26:10.457Z,12.43
2023-05-03T21:28:36.793Z,12.63
2023-05-03T21:31:03.206Z,13.40
2023-05-03T21:33:29.528Z,13.05
2023-05-03T21:35:56.480Z,12.60
2023-05-03T21:38:22.872Z,13.90
2023-05-03T21:40:49.236Z,13.23
2023-05-03T21:43:15.543Z,14.18
2023-05-03T21:45:42.479Z,13.57
2023-05-03T21:48:08.953Z,13.00
2023-05-03T21:50:37.785Z,12.90
2023-05-03T21:53:04.932Z,14.15
2023-05-03T21:55:31.463Z,13.57
2023-05-03T21:57:57.816Z,14.07
2023-05-03T22:00:24.410Z,13.57
2023-05-03T22:02:50.842Z,13.10
2023-05-03T22:05:17.337Z,13.57
2023-05-03T22:07:43.792Z,12.75
2023-05-03T22:10:10.844Z,13.82
2023-05-03T22:12:37.387Z,13.82
2023-05-03T22:15:04.382Z,15.57
2023-05-03T22:17:30.989Z,14.60
2023-05-03T22:19:57.570Z,14.82
2023-05-03T22:22:23.888Z,14.30
2023-05-03T22:24:50.237Z,15.85
2023-05-03T22:27:17.254Z,14.63
2023-05-03T22:29:43.590Z,15.23
2023-05-03T22:32:09.903Z,14.52
2023-05-03T22:34:36.253Z,14.95
2023-05-03T22:37:02.708Z,14.02
2023-05-03T22:39:29.041Z,15.43
2023-05-03T22:41:55.501Z,15.05
2023-05-03T22:44:22.469Z,15.23
2023-05-03T22:46:48.768Z,15.18
2023-05-03T22:49:15.108Z,15.02
2023-05-03T22:51:41.420Z,16.45
2023-05-03T23:00:53.597Z,15.85
2023-05-03T23:03:21.159Z,16.50
2023-05-03T23:05:48.843Z,16.85
2023-05-03T23:08:15.308Z,16.77
2023-05-03T23:10:41.810Z,16.73
2023-05-03T23:13:08.753Z,17.88
2023-05-03T23:15:36.905Z,16.50
2023-05-03T23:18:03.537Z,17.95
2023-05-03T23:20:29.975Z,16.52
2023-05-03T23:22:56.414Z,15.75
2023-05-03T23:25:22.740Z,16.10
2023-05-03T23:27:49.486Z,14.73
2023-05-03T23:30:16.288Z,15.18
2023-05-03T23:32:45.355Z,15.27
2023-05-03T23:35:12.764Z,16.40
2023-05-03T23:37:39.073Z,15.82
2023-05-03T23:40:06.669Z,17.17
2023-05-03T23:42:33.176Z,16.48
2023-05-03T23:44:59.452Z,17.90
2023-05-03T23:47:25.788Z,16.45
2023-05-03T23:49:52.793Z,18.75
2023-05-03T23:52:19.642Z,18.00
2023-05-03T23:54:46.152Z,18.30
2023-05-03T23:57:12.457Z,19.05
2023-05-03T23:59:38.765Z,18.60
